sensor_id;sensor_type;location;lat;lon;timestamp;temperature;humidity
46319;DHT22;32042;50.916;2.926;2023-07-13T00:01:47;15.50;99.90
46319;DHT22;32042;50.916;2.926;2023-07-13T00:04:16;15.50;99.90
46319;DHT22;32042;50.916;2.926;2023-07-13T00:06:44;15.50;99.90
46319;DHT22;32042;50.916;2.926;2023-07-13T00:09:15;15.50;99.90
46319;DHT22;32042;50.916;2.926;2023-07-13T00:11:41;15.50;99.90
46319;DHT22;32042;50.916;2.926;2023-07-13T00:14:07;15.40;99.90
46319;DHT22;32042;50.916;2.926;2023-07-13T00:16:37;15.40;99.90
46319;DHT22;32042;50.916;2.926;2023-07-13T00:19:04;15.40;99.90
46319;DHT22;32042;50.916;2.926;2023-07-13T00:21:30;15.40;99.90
46319;DHT22;32042;50.916;2.926;2023-07-13T00:23:56;15.40;99.90
46319;DHT22;32042;50.916;2.926;2023-07-13T00:26:23;15.40;99.90
46319;DHT22;32042;50.916;2.926;2023-07-13T00:28:49;15.40;99.90
46319;DHT22;32042;50.916;2.926;2023-07-13T00:31:15;15.40;99.90
46319;DHT22;32042;50.916;2.926;2023-07-13T00:33:41;15.40;99.90
46319;DHT22;32042;50.916;2.926;2023-07-13T00:36:08;15.30;99.90
46319;DHT22;32042;50.916;2.926;2023-07-13T00:38:34;15.30;99.90
46319;DHT22;32042;50.916;2.926;2023-07-13T00:41:00;15.30;99.90
46319;DHT22;32042;50.916;2.926;2023-07-13T00:43:28;15.30;99.90
46319;DHT22;32042;50.916;2.926;2023-07-13T00:48:26;15.30;99.90
46319;DHT22;32042;50.916;2.926;2023-07-13T00:50:56;15.30;99.90
46319;DHT22;32042;50.916;2.926;2023-07-13T00:53:24;15.30;99.90
46319;DHT22;32042;50.916;2.926;2023-07-13T00:55:52;15.20;99.90
46319;DHT22;32042;50.916;2.926;2023-07-13T00:58:19;15.20;99.90
46319;DHT22;32042;50.916;2.926;2023-07-13T01:00:47;15.20;99.90
46319;DHT22;32042;50.916;2.926;2023-07-13T01:03:14;15.20;99.90
46319;DHT22;32042;50.916;2.926;2023-07-13T01:05:40;15.20;99.90
46319;DHT22;32042;50.916;2.926;2023-07-13T01:08:05;15.20;99.90
46319;DHT22;32042;50.916;2.926;2023-07-13T01:10:32;15.20;99.90
46319;DHT22;32042;50.916;2.926;2023-07-13T01:13:06;15.10;99.90
46319;DHT22;32042;50.916;2.926;2023-07-13T01:15:43;15.10;99.90
46319;DHT22;32042;50.916;2.926;2023-07-13T01:18:18;15.10;99.90
46319;DHT22;32042;50.916;2.926;2023-07-13T01:20:58;15.10;99.90
46319;DHT22;32042;50.916;2.926;2023-07-13T01:23:25;15.10;99.90
46319;DHT22;32042;50.916;2.926;2023-07-13T01:25:52;15.10;99.90
46319;DHT22;32042;50.916;2.926;2023-07-13T01:28:18;15.10;99.90
46319;DHT22;32042;50.916;2.926;2023-07-13T01:30:45;15.10;99.90
46319;DHT22;32042;50.916;2.926;2023-07-13T01:33:16;15.10;99.90
46319;DHT22;32042;50.916;2.926;2023-07-13T01:35:44;15.10;99.90
46319;DHT22;32042;50.916;2.926;2023-07-13T01:38:10;15.10;99.90
46319;DHT22;32042;50.916;2.926;2023-07-13T01:40:37;15.10;99.90
46319;DHT22;32042;50.916;2.926;2023-07-13T01:43:03;15.10;99.90
46319;DHT22;32042;50.916;2.926;2023-07-13T01:45:29;15.10;99.90
46319;DHT22;32042;50.916;2.926;2023-07-13T01:47:55;15.10;99.90
46319;DHT22;32042;50.916;2.926;2023-07-13T01:50:21;15.10;99.90
46319;DHT22;32042;50.916;2.926;2023-07-13T01:52:47;15.10;99.90
46319;DHT22;32042;50.916;2.926;2023-07-13T01:55:12;15.10;99.90
46319;DHT22;32042;50.916;2.926;2023-07-13T01:57:39;15.10;99.90
46319;DHT22;32042;50.916;2.926;2023-07-13T02:00:06;15.10;99.90
46319;DHT22;32042;50.916;2.926;2023-07-13T02:02:32;15.10;99.90
46319;DHT22;32042;50.916;2.926;2023-07-13T02:04:58;15.10;99.90
46319;DHT22;32042;50.916;2.926;2023-07-13T02:07:24;15.10;99.90
46319;DHT22;32042;50.916;2.926;2023-07-13T02:09:49;15.00;99.90
46319;DHT22;32042;50.916;2.926;2023-07-13T02:12:15;15.10;99.90
46319;DHT22;32042;50.916;2.926;2023-07-13T02:14:41;15.10;99.90
46319;DHT22;32042;50.916;2.926;2023-07-13T02:17:06;15.10;99.90
46319;DHT22;32042;50.916;2.926;2023-07-13T02:19:32;15.10;99.90
46319;DHT22;32042;50.916;2.926;2023-07-13T02:21:58;15.10;99.90
46319;DHT22;32042;50.916;2.926;2023-07-13T02:24:24;15.00;99.90
46319;DHT22;32042;50.916;2.926;2023-07-13T02:26:49;15.00;99.90
46319;DHT22;32042;50.916;2.926;2023-07-13T02:29:15;15.00;99.90
46319;DHT22;32042;50.916;2.926;2023-07-13T02:31:42;15.00;99.90
46319;DHT22;32042;50.916;2.926;2023-07-13T02:34:09;15.00;99.90
46319;DHT22;32042;50.916;2.926;2023-07-13T02:36:36;15.00;99.90
46319;DHT22;32042;50.916;2.926;2023-07-13T02:39:04;15.00;99.90
46319;DHT22;32042;50.916;2.926;2023-07-13T02:41:32;15.00;99.90
46319;DHT22;32042;50.916;2.926;2023-07-13T02:43:59;15.00;99.90
46319;DHT22;32042;50.916;2.926;2023-07-13T02:46:31;15.00;99.90
46319;DHT22;32042;50.916;2.926;2023-07-13T02:48:57;14.90;99.90
46319;DHT22;32042;50.916;2.926;2023-07-13T02:51:25;14.90;99.90
46319;DHT22;32042;50.916;2.926;2023-07-13T02:53:51;14.90;99.90
46319;DHT22;32042;50.916;2.926;2023-07-13T02:56:18;14.90;99.90
46319;DHT22;32042;50.916;2.926;2023-07-13T02:58:44;14.90;99.90
46319;DHT22;32042;50.916;2.926;2023-07-13T03:01:11;14.90;99.90
46319;DHT22;32042;50.916;2.926;2023-07-13T03:03:38;14.80;99.90
46319;DHT22;32042;50.916;2.926;2023-07-13T03:06:04;14.90;99.90
46319;DHT22;32042;50.916;2.926;2023-07-13T03:08:32;14.90;99.90
46319;DHT22;32042;50.916;2.926;2023-07-13T03:11:05;14.80;99.90
46319;DHT22;32042;50.916;2.926;2023-07-13T03:13:31;14.90;99.90
46319;DHT22;32042;50.916;2.926;2023-07-13T03:15:57;14.90;99.90
46319;DHT22;32042;50.916;2.926;2023-07-13T03:18:22;14.90;99.90
46319;DHT22;32042;50.916;2.926;2023-07-13T03:20:51;14.90;99.90
46319;DHT22;32042;50.916;2.926;2023-07-13T03:23:18;14.90;99.90
46319;DHT22;32042;50.916;2.926;2023-07-13T03:25:44;14.90;99.90
46319;DHT22;32042;50.916;2.926;2023-07-13T03:28:11;14.90;99.90
46319;DHT22;32042;50.916;2.926;2023-07-13T03:30:37;14.90;99.90
46319;DHT22;32042;50.916;2.926;2023-07-13T03:33:02;14.90;99.90
46319;DHT22;32042;50.916;2.926;2023-07-13T03:35:28;14.90;99.90
46319;DHT22;32042;50.916;2.926;2023-07-13T03:37:54;15.00;99.90
46319;DHT22;32042;50.916;2.926;2023-07-13T03:40:20;15.00;99.90
46319;DHT22;32042;50.916;2.926;2023-07-13T03:42:45;15.00;99.90
46319;DHT22;32042;50.916;2.926;2023-07-13T03:45:11;15.00;99.90
46319;DHT22;32042;50.916;2.926;2023-07-13T03:47:37;15.00;99.90
46319;DHT22;32042;50.916;2.926;2023-07-13T03:50:03;15.10;99.90
46319;DHT22;32042;50.916;2.926;2023-07-13T03:52:29;15.10;99.90
46319;DHT22;32042;50.916;2.926;2023-07-13T03:54:55;15.20;99.90
46319;DHT22;32042;50.916;2.926;2023-07-13T03:57:20;15.20;99.90
46319;DHT22;32042;50.916;2.926;2023-07-13T03:59:46;15.30;99.90
46319;DHT22;32042;50.916;2.926;2023-07-13T04:02:12;15.30;99.90
46319;DHT22;32042;50.916;2.926;2023-07-13T04:04:37;15.30;99.90
46319;DHT22;32042;50.916;2.926;2023-07-13T04:07:06;15.40;99.90
46319;DHT22;32042;50.916;2.926;2023-07-13T04:09:34;15.40;99.90
46319;DHT22;32042;50.916;2.926;2023-07-13T04:11:59;15.40;99.90
46319;DHT22;32042;50.916;2.926;2023-07-13T04:14:25;15.50;99.90
46319;DHT22;32042;50.916;2.926;2023-07-13T04:16:51;15.50;99.90
46319;DHT22;32042;50.916;2.926;2023-07-13T04:19:17;15.50;99.90
46319;DHT22;32042;50.916;2.926;2023-07-13T04:21:42;15.50;99.90
46319;DHT22;32042;50.916;2.926;2023-07-13T04:24:08;15.60;99.90
46319;DHT22;32042;50.916;2.926;2023-07-13T04:26:35;15.60;99.90
46319;DHT22;32042;50.916;2.926;2023-07-13T04:29:02;15.60;99.90
46319;DHT22;32042;50.916;2.926;2023-07-13T04:31:30;15.70;99.90
46319;DHT22;32042;50.916;2.926;2023-07-13T04:33:56;15.70;99.90
46319;DHT22;32042;50.916;2.926;2023-07-13T04:36:22;15.70;99.90
46319;DHT22;32042;50.916;2.926;2023-07-13T04:38:47;15.80;99.90
46319;DHT22;32042;50.916;2.926;2023-07-13T04:41:14;15.80;99.90
46319;DHT22;32042;50.916;2.926;2023-07-13T04:43:41;15.80;99.90
46319;DHT22;32042;50.916;2.926;2023-07-13T04:46:09;15.80;99.90
46319;DHT22;32042;50.916;2.926;2023-07-13T04:48:36;15.80;99.90
46319;DHT22;32042;50.916;2.926;2023-07-13T04:51:03;15.90;99.90
46319;DHT22;32042;50.916;2.926;2023-07-13T04:53:29;15.90;99.90
46319;DHT22;32042;50.916;2.926;2023-07-13T04:55:55;15.90;99.90
46319;DHT22;32042;50.916;2.926;2023-07-13T04:58:22;15.90;99.90
46319;DHT22;32042;50.916;2.926;2023-07-13T05:00:48;16.00;99.90
46319;DHT22;32042;50.916;2.926;2023-07-13T05:03:14;16.00;99.90
46319;DHT22;32042;50.916;2.926;2023-07-13T05:05:39;16.10;99.90
46319;DHT22;32042;50.916;2.926;2023-07-13T05:08:05;16.10;99.90
46319;DHT22;32042;50.916;2.926;2023-07-13T05:10:33;16.10;99.90
46319;DHT22;32042;50.916;2.926;2023-07-13T05:12:58;16.10;99.90
46319;DHT22;32042;50.916;2.926;2023-07-13T05:15:24;16.10;99.90
46319;DHT22;32042;50.916;2.926;2023-07-13T05:17:51;16.10;99.90
46319;DHT22;32042;50.916;2.926;2023-07-13T05:20:18;16.20;99.90
46319;DHT22;32042;50.916;2.926;2023-07-13T05:22:44;16.20;99.90
46319;DHT22;32042;50.916;2.926;2023-07-13T05:25:12;16.20;99.90
46319;DHT22;32042;50.916;2.926;2023-07-13T05:27:39;16.30;99.90
46319;DHT22;32042;50.916;2.926;2023-07-13T05:30:05;16.30;99.90
46319;DHT22;32042;50.916;2.926;2023-07-13T05:32:31;16.30;99.90
46319;DHT22;32042;50.916;2.926;2023-07-13T05:34:57;16.30;99.90
46319;DHT22;32042;50.916;2.926;2023-07-13T05:37:22;16.40;99.90
46319;DHT22;32042;50.916;2.926;2023-07-13T05:39:48;16.40;99.90
46319;DHT22;32042;50.916;2.926;2023-07-13T05:42:14;16.50;99.90
46319;DHT22;32042;50.916;2.926;2023-07-13T05:44:40;16.50;99.90
46319;DHT22;32042;50.916;2.926;2023-07-13T05:47:06;16.50;99.90
46319;DHT22;32042;50.916;2.926;2023-07-13T05:49:32;16.50;99.90
46319;DHT22;32042;50.916;2.926;2023-07-13T05:51:57;16.50;99.90
46319;DHT22;32042;50.916;2.926;2023-07-13T05:54:23;16.60;99.90
46319;DHT22;32042;50.916;2.926;2023-07-13T05:56:49;16.60;99.90
46319;DHT22;32042;50.916;2.926;2023-07-13T05:59:14;16.70;99.90
46319;DHT22;32042;50.916;2.926;2023-07-13T06:01:41;16.70;99.90
46319;DHT22;32042;50.916;2.926;2023-07-13T06:04:07;16.70;99.90
46319;DHT22;32042;50.916;2.926;2023-07-13T06:06:33;16.80;99.90
46319;DHT22;32042;50.916;2.926;2023-07-13T06:08:58;16.80;99.90
46319;DHT22;32042;50.916;2.926;2023-07-13T06:11:26;16.90;99.90
46319;DHT22;32042;50.916;2.926;2023-07-13T06:13:53;16.90;99.90
46319;DHT22;32042;50.916;2.926;2023-07-13T06:16:19;17.00;99.90
46319;DHT22;32042;50.916;2.926;2023-07-13T06:18:45;17.00;99.90
46319;DHT22;32042;50.916;2.926;2023-07-13T06:21:29;17.10;99.90
46319;DHT22;32042;50.916;2.926;2023-07-13T06:23:55;17.10;99.90
46319;DHT22;32042;50.916;2.926;2023-07-13T06:26:21;17.20;99.90
46319;DHT22;32042;50.916;2.926;2023-07-13T06:28:47;17.20;99.90
46319;DHT22;32042;50.916;2.926;2023-07-13T06:31:13;17.20;99.90
46319;DHT22;32042;50.916;2.926;2023-07-13T06:33:40;17.30;99.90
46319;DHT22;32042;50.916;2.926;2023-07-13T06:36:07;17.30;99.90
46319;DHT22;32042;50.916;2.926;2023-07-13T06:38:33;17.30;99.90
46319;DHT22;32042;50.916;2.926;2023-07-13T06:40:59;17.30;99.90
46319;DHT22;32042;50.916;2.926;2023-07-13T06:43:25;17.40;99.90
46319;DHT22;32042;50.916;2.926;2023-07-13T06:45:53;17.50;99.90
46319;DHT22;32042;50.916;2.926;2023-07-13T06:48:19;17.60;99.90
46319;DHT22;32042;50.916;2.926;2023-07-13T06:50:47;17.60;99.90
46319;DHT22;32042;50.916;2.926;2023-07-13T06:53:13;17.50;99.90
46319;DHT22;32042;50.916;2.926;2023-07-13T06:55:39;17.60;99.90
46319;DHT22;32042;50.916;2.926;2023-07-13T06:58:06;17.60;99.90
46319;DHT22;32042;50.916;2.926;2023-07-13T07:00:32;17.70;99.90
46319;DHT22;32042;50.916;2.926;2023-07-13T07:02:57;17.70;99.90
46319;DHT22;32042;50.916;2.926;2023-07-13T07:05:23;17.70;99.90
46319;DHT22;32042;50.916;2.926;2023-07-13T07:07:53;17.80;99.90
46319;DHT22;32042;50.916;2.926;2023-07-13T07:10:20;17.80;99.90
46319;DHT22;32042;50.916;2.926;2023-07-13T07:12:46;17.90;99.90
46319;DHT22;32042;50.916;2.926;2023-07-13T07:15:12;17.90;99.90
46319;DHT22;32042;50.916;2.926;2023-07-13T07:17:38;17.90;99.90
46319;DHT22;32042;50.916;2.926;2023-07-13T07:20:04;18.00;99.90
46319;DHT22;32042;50.916;2.926;2023-07-13T07:22:30;18.10;99.90
46319;DHT22;32042;50.916;2.926;2023-07-13T07:24:57;18.10;99.90
46319;DHT22;32042;50.916;2.926;2023-07-13T07:27:24;18.20;99.90
46319;DHT22;32042;50.916;2.926;2023-07-13T07:29:50;18.20;99.90
46319;DHT22;32042;50.916;2.926;2023-07-13T07:32:16;18.20;99.90
46319;DHT22;32042;50.916;2.926;2023-07-13T07:34:42;18.20;99.90
46319;DHT22;32042;50.916;2.926;2023-07-13T07:37:11;18.20;99.90
46319;DHT22;32042;50.916;2.926;2023-07-13T07:39:37;18.30;99.90
46319;DHT22;32042;50.916;2.926;2023-07-13T07:42:03;18.30;99.90
46319;DHT22;32042;50.916;2.926;2023-07-13T07:44:31;18.40;99.90
46319;DHT22;32042;50.916;2.926;2023-07-13T07:46:57;18.40;99.90
46319;DHT22;32042;50.916;2.926;2023-07-13T07:49:23;18.50;99.90
46319;DHT22;32042;50.916;2.926;2023-07-13T07:51:49;18.60;99.90
46319;DHT22;32042;50.916;2.926;2023-07-13T07:54:16;18.70;99.90
46319;DHT22;32042;50.916;2.926;2023-07-13T07:56:41;18.70;99.90
46319;DHT22;32042;50.916;2.926;2023-07-13T07:59:07;18.90;99.90
46319;DHT22;32042;50.916;2.926;2023-07-13T08:01:33;19.10;99.90
46319;DHT22;32042;50.916;2.926;2023-07-13T08:03:59;19.20;99.90
46319;DHT22;32042;50.916;2.926;2023-07-13T08:06:25;19.30;99.90
46319;DHT22;32042;50.916;2.926;2023-07-13T08:08:51;19.50;99.90
46319;DHT22;32042;50.916;2.926;2023-07-13T08:11:17;19.60;99.90
46319;DHT22;32042;50.916;2.926;2023-07-13T08:13:43;19.50;99.90
46319;DHT22;32042;50.916;2.926;2023-07-13T08:16:08;19.50;99.90
46319;DHT22;32042;50.916;2.926;2023-07-13T08:18:34;19.60;99.90
46319;DHT22;32042;50.916;2.926;2023-07-13T08:21:07;19.70;99.90
46319;DHT22;32042;50.916;2.926;2023-07-13T08:23:34;19.60;99.90
46319;DHT22;32042;50.916;2.926;2023-07-13T08:25:59;19.60;99.90
46319;DHT22;32042;50.916;2.926;2023-07-13T08:28:27;19.60;99.90
46319;DHT22;32042;50.916;2.926;2023-07-13T08:30:53;19.50;99.90
46319;DHT22;32042;50.916;2.926;2023-07-13T08:33:20;19.40;99.90
46319;DHT22;32042;50.916;2.926;2023-07-13T08:35:47;19.30;99.90
46319;DHT22;32042;50.916;2.926;2023-07-13T08:38:13;19.30;99.90
46319;DHT22;32042;50.916;2.926;2023-07-13T08:40:39;19.60;99.90
46319;DHT22;32042;50.916;2.926;2023-07-13T08:43:12;19.90;99.90
46319;DHT22;32042;50.916;2.926;2023-07-13T08:46:00;20.00;99.90
46319;DHT22;32042;50.916;2.926;2023-07-13T08:48:33;20.10;99.90
46319;DHT22;32042;50.916;2.926;2023-07-13T08:53:48;20.10;99.90
46319;DHT22;32042;50.916;2.926;2023-07-13T08:56:23;20.30;99.90
46319;DHT22;32042;50.916;2.926;2023-07-13T08:58:53;20.20;99.90
46319;DHT22;32042;50.916;2.926;2023-07-13T09:02:00;20.40;99.90
46319;DHT22;32042;50.916;2.926;2023-07-13T09:04:23;20.50;99.90
46319;DHT22;32042;50.916;2.926;2023-07-13T09:15:29;20.50;99.90
46319;DHT22;32042;50.916;2.926;2023-07-13T09:18:59;20.70;99.90
46319;DHT22;32042;50.916;2.926;2023-07-13T09:23:47;20.80;99.90
46319;DHT22;32042;50.916;2.926;2023-07-13T09:26:22;20.90;99.90
46319;DHT22;32042;50.916;2.926;2023-07-13T09:29:03;20.70;99.90
46319;DHT22;32042;50.916;2.926;2023-07-13T09:31:39;20.60;99.90
46319;DHT22;32042;50.916;2.926;2023-07-13T09:34:11;20.40;99.90
46319;DHT22;32042;50.916;2.926;2023-07-13T09:36:37;20.20;99.90
46319;DHT22;32042;50.916;2.926;2023-07-13T09:39:25;19.80;99.90
46319;DHT22;32042;50.916;2.926;2023-07-13T09:44:35;18.70;99.90
46319;DHT22;32042;50.916;2.926;2023-07-13T09:47:02;18.20;99.90
46319;DHT22;32042;50.916;2.926;2023-07-13T09:49:35;17.90;99.90
46319;DHT22;32042;50.916;2.926;2023-07-13T09:52:09;17.70;99.90
46319;DHT22;32042;50.916;2.926;2023-07-13T09:54:37;17.60;99.90
46319;DHT22;32042;50.916;2.926;2023-07-13T09:57:11;17.70;99.90
46319;DHT22;32042;50.916;2.926;2023-07-13T09:59:42;17.80;99.90
46319;DHT22;32042;50.916;2.926;2023-07-13T10:02:29;17.90;99.90
46319;DHT22;32042;50.916;2.926;2023-07-13T10:05:03;18.10;99.90
46319;DHT22;32042;50.916;2.926;2023-07-13T10:07:31;18.20;99.90
46319;DHT22;32042;50.916;2.926;2023-07-13T10:10:00;18.30;99.90
46319;DHT22;32042;50.916;2.926;2023-07-13T10:12:29;18.40;99.90
46319;DHT22;32042;50.916;2.926;2023-07-13T10:14:57;18.50;99.90
46319;DHT22;32042;50.916;2.926;2023-07-13T10:17:30;18.60;99.90
46319;DHT22;32042;50.916;2.926;2023-07-13T10:20:04;18.80;99.90
46319;DHT22;32042;50.916;2.926;2023-07-13T10:25:23;19.00;99.90
46319;DHT22;32042;50.916;2.926;2023-07-13T10:27:52;19.30;99.90
46319;DHT22;32042;50.916;2.926;2023-07-13T10:30:33;19.60;99.90
46319;DHT22;32042;50.916;2.926;2023-07-13T10:33:03;19.70;99.90
46319;DHT22;32042;50.916;2.926;2023-07-13T10:35:32;19.90;99.90
46319;DHT22;32042;50.916;2.926;2023-07-13T10:38:06;20.00;99.90
46319;DHT22;32042;50.916;2.926;2023-07-13T10:40:40;20.10;99.90
46319;DHT22;32042;50.916;2.926;2023-07-13T10:43:23;20.10;99.90
46319;DHT22;32042;50.916;2.926;2023-07-13T10:45:52;19.90;99.90
46319;DHT22;32042;50.916;2.926;2023-07-13T10:48:21;19.90;99.90
46319;DHT22;32042;50.916;2.926;2023-07-13T10:50:50;20.10;99.90
46319;DHT22;32042;50.916;2.926;2023-07-13T10:53:28;20.30;99.90
46319;DHT22;32042;50.916;2.926;2023-07-13T10:58:34;20.60;99.90
46319;DHT22;32042;50.916;2.926;2023-07-13T11:03:34;20.90;99.90
46319;DHT22;32042;50.916;2.926;2023-07-13T11:11:33;21.10;99.90
46319;DHT22;32042;50.916;2.926;2023-07-13T11:14:02;21.10;99.90
46319;DHT22;32042;50.916;2.926;2023-07-13T11:16:43;21.10;99.90
46319;DHT22;32042;50.916;2.926;2023-07-13T11:24:51;21.40;99.90
46319;DHT22;32042;50.916;2.926;2023-07-13T11:27:36;21.30;99.90
46319;DHT22;32042;50.916;2.926;2023-07-13T11:32:50;21.60;99.90
46319;DHT22;32042;50.916;2.926;2023-07-13T11:35:21;21.80;99.90
46319;DHT22;32042;50.916;2.926;2023-07-13T11:37:49;21.80;99.90
46319;DHT22;32042;50.916;2.926;2023-07-13T11:40:15;21.80;99.90
46319;DHT22;32042;50.916;2.926;2023-07-13T11:42:41;21.90;99.90
46319;DHT22;32042;50.916;2.926;2023-07-13T11:45:22;21.90;99.90
46319;DHT22;32042;50.916;2.926;2023-07-13T11:47:49;22.00;99.90
46319;DHT22;32042;50.916;2.926;2023-07-13T11:50:23;22.10;99.90
46319;DHT22;32042;50.916;2.926;2023-07-13T11:52:50;22.00;99.90
46319;DHT22;32042;50.916;2.926;2023-07-13T11:55:20;21.90;99.90
46319;DHT22;32042;50.916;2.926;2023-07-13T11:57:59;21.80;99.90
46319;DHT22;32042;50.916;2.926;2023-07-13T12:00:29;21.80;99.90
46319;DHT22;32042;50.916;2.926;2023-07-13T12:02:57;21.70;99.90
46319;DHT22;32042;50.916;2.926;2023-07-13T12:05:25;21.90;99.90
46319;DHT22;32042;50.916;2.926;2023-07-13T12:07:51;22.10;99.90
46319;DHT22;32042;50.916;2.926;2023-07-13T12:10:23;22.10;99.90
46319;DHT22;32042;50.916;2.926;2023-07-13T12:13:03;22.20;99.90
46319;DHT22;32042;50.916;2.926;2023-07-13T12:15:45;22.30;99.90
46319;DHT22;32042;50.916;2.926;2023-07-13T12:18:18;22.30;99.90
46319;DHT22;32042;50.916;2.926;2023-07-13T12:20:45;22.40;99.90
46319;DHT22;32042;50.916;2.926;2023-07-13T12:23:25;22.40;99.90
46319;DHT22;32042;50.916;2.926;2023-07-13T12:25:53;22.60;99.90
46319;DHT22;32042;50.916;2.926;2023-07-13T12:31:17;22.30;99.90
46319;DHT22;32042;50.916;2.926;2023-07-13T12:33:47;22.10;99.90
46319;DHT22;32042;50.916;2.926;2023-07-13T12:36:16;22.00;99.90
46319;DHT22;32042;50.916;2.926;2023-07-13T12:38:44;21.90;99.90
46319;DHT22;32042;50.916;2.926;2023-07-13T12:41:11;21.80;99.90
46319;DHT22;32042;50.916;2.926;2023-07-13T12:43:37;21.80;99.90
46319;DHT22;32042;50.916;2.926;2023-07-13T12:46:05;21.80;99.90
46319;DHT22;32042;50.916;2.926;2023-07-13T12:48:42;21.90;99.90
46319;DHT22;32042;50.916;2.926;2023-07-13T12:51:12;21.90;99.90
46319;DHT22;32042;50.916;2.926;2023-07-13T12:53:42;22.20;99.90
46319;DHT22;32042;50.916;2.926;2023-07-13T12:56:15;22.20;99.90
46319;DHT22;32042;50.916;2.926;2023-07-13T12:58:43;22.40;99.90
46319;DHT22;32042;50.916;2.926;2023-07-13T13:01:12;22.40;99.90
46319;DHT22;32042;50.916;2.926;2023-07-13T13:03:50;22.40;99.90
46319;DHT22;32042;50.916;2.926;2023-07-13T13:08:47;22.50;99.90
46319;DHT22;32042;50.916;2.926;2023-07-13T13:11:14;22.50;99.90
46319;DHT22;32042;50.916;2.926;2023-07-13T13:13:42;22.70;99.90
46319;DHT22;32042;50.916;2.926;2023-07-13T13:16:29;22.90;99.90
46319;DHT22;32042;50.916;2.926;2023-07-13T13:18:59;23.00;99.90
46319;DHT22;32042;50.916;2.926;2023-07-13T13:21:25;23.20;99.90
46319;DHT22;32042;50.916;2.926;2023-07-13T13:23:52;23.30;99.90
46319;DHT22;32042;50.916;2.926;2023-07-13T13:26:19;23.20;99.90
46319;DHT22;32042;50.916;2.926;2023-07-13T13:28:46;23.10;99.90
46319;DHT22;32042;50.916;2.926;2023-07-13T13:31:13;23.10;99.90
46319;DHT22;32042;50.916;2.926;2023-07-13T13:33:41;23.10;99.90
46319;DHT22;32042;50.916;2.926;2023-07-13T13:36:22;23.00;99.90
46319;DHT22;32042;50.916;2.926;2023-07-13T13:38:49;22.80;99.90
46319;DHT22;32042;50.916;2.926;2023-07-13T13:41:16;22.80;99.90
46319;DHT22;32042;50.916;2.926;2023-07-13T13:43:42;22.80;99.90
46319;DHT22;32042;50.916;2.926;2023-07-13T13:46:20;22.90;99.90
46319;DHT22;32042;50.916;2.926;2023-07-13T13:48:48;22.70;99.90
46319;DHT22;32042;50.916;2.926;2023-07-13T13:51:24;22.80;99.90
46319;DHT22;32042;50.916;2.926;2023-07-13T13:53:50;22.90;99.90
46319;DHT22;32042;50.916;2.926;2023-07-13T13:56:17;23.10;99.90
46319;DHT22;32042;50.916;2.926;2023-07-13T13:58:43;23.20;99.90
46319;DHT22;32042;50.916;2.926;2023-07-13T14:01:18;23.20;99.90
46319;DHT22;32042;50.916;2.926;2023-07-13T14:03:45;23.40;99.90
46319;DHT22;32042;50.916;2.926;2023-07-13T14:06:15;23.40;99.90
46319;DHT22;32042;50.916;2.926;2023-07-13T14:08:41;23.20;99.90
46319;DHT22;32042;50.916;2.926;2023-07-13T14:11:12;23.00;99.90
46319;DHT22;32042;50.916;2.926;2023-07-13T14:13:48;22.70;99.90
46319;DHT22;32042;50.916;2.926;2023-07-13T14:16:19;22.80;99.90
46319;DHT22;32042;50.916;2.926;2023-07-13T14:18:46;23.10;99.90
46319;DHT22;32042;50.916;2.926;2023-07-13T14:21:15;23.10;99.90
46319;DHT22;32042;50.916;2.926;2023-07-13T14:23:42;23.10;99.90
46319;DHT22;32042;50.916;2.926;2023-07-13T14:26:18;23.00;99.90
46319;DHT22;32042;50.916;2.926;2023-07-13T14:28:47;22.90;99.90
46319;DHT22;32042;50.916;2.926;2023-07-13T14:31:15;23.00;99.90
46319;DHT22;32042;50.916;2.926;2023-07-13T14:33:42;23.20;99.90
46319;DHT22;32042;50.916;2.926;2023-07-13T14:38:42;23.50;99.90
46319;DHT22;32042;50.916;2.926;2023-07-13T14:41:08;23.50;99.90
46319;DHT22;32042;50.916;2.926;2023-07-13T14:43:34;23.50;99.90
46319;DHT22;32042;50.916;2.926;2023-07-13T14:45:59;23.30;99.90
46319;DHT22;32042;50.916;2.926;2023-07-13T14:48:25;23.30;99.90
46319;DHT22;32042;50.916;2.926;2023-07-13T14:50:57;23.10;99.90
46319;DHT22;32042;50.916;2.926;2023-07-13T14:53:24;23.20;99.90
46319;DHT22;32042;50.916;2.926;2023-07-13T14:55:50;23.20;99.90
46319;DHT22;32042;50.916;2.926;2023-07-13T14:58:16;23.40;99.90
46319;DHT22;32042;50.916;2.926;2023-07-13T15:00:42;23.50;99.90
46319;DHT22;32042;50.916;2.926;2023-07-13T15:03:19;23.40;99.90
46319;DHT22;32042;50.916;2.926;2023-07-13T15:05:47;23.20;99.90
46319;DHT22;32042;50.916;2.926;2023-07-13T15:08:13;23.10;99.90
46319;DHT22;32042;50.916;2.926;2023-07-13T15:10:40;23.10;99.90
46319;DHT22;32042;50.916;2.926;2023-07-13T15:13:20;23.40;99.90
46319;DHT22;32042;50.916;2.926;2023-07-13T15:15:51;23.40;99.90
46319;DHT22;32042;50.916;2.926;2023-07-13T15:18:20;23.40;99.90
46319;DHT22;32042;50.916;2.926;2023-07-13T15:20:48;23.40;99.90
46319;DHT22;32042;50.916;2.926;2023-07-13T15:23:16;23.30;99.90
46319;DHT22;32042;50.916;2.926;2023-07-13T15:25:43;23.40;99.90
46319;DHT22;32042;50.916;2.926;2023-07-13T15:28:09;23.50;99.90
46319;DHT22;32042;50.916;2.926;2023-07-13T15:30:41;23.20;99.90
46319;DHT22;32042;50.916;2.926;2023-07-13T15:33:28;23.10;99.90
46319;DHT22;32042;50.916;2.926;2023-07-13T15:35:55;23.10;99.90
46319;DHT22;32042;50.916;2.926;2023-07-13T15:40:50;23.40;99.90
46319;DHT22;32042;50.916;2.926;2023-07-13T15:43:17;23.60;99.90
46319;DHT22;32042;50.916;2.926;2023-07-13T15:45:43;23.70;99.90
46319;DHT22;32042;50.916;2.926;2023-07-13T15:48:15;23.70;99.90
46319;DHT22;32042;50.916;2.926;2023-07-13T15:50:53;23.40;99.90
46319;DHT22;32042;50.916;2.926;2023-07-13T15:53:25;23.30;99.90
46319;DHT22;32042;50.916;2.926;2023-07-13T15:55:51;23.20;99.90
46319;DHT22;32042;50.916;2.926;2023-07-13T15:58:18;22.80;99.90
46319;DHT22;32042;50.916;2.926;2023-07-13T16:00:44;22.60;99.90
46319;DHT22;32042;50.916;2.926;2023-07-13T16:03:11;22.60;99.90
46319;DHT22;32042;50.916;2.926;2023-07-13T16:05:37;22.40;99.90
46319;DHT22;32042;50.916;2.926;2023-07-13T16:08:05;22.40;99.90
46319;DHT22;32042;50.916;2.926;2023-07-13T16:10:34;22.50;99.90
46319;DHT22;32042;50.916;2.926;2023-07-13T16:13:01;22.40;99.90
46319;DHT22;32042;50.916;2.926;2023-07-13T16:15:27;22.30;99.90
46319;DHT22;32042;50.916;2.926;2023-07-13T16:17:53;22.30;99.90
46319;DHT22;32042;50.916;2.926;2023-07-13T16:20:20;22.30;99.90
46319;DHT22;32042;50.916;2.926;2023-07-13T16:22:49;22.30;99.90
46319;DHT22;32042;50.916;2.926;2023-07-13T16:25:17;22.20;99.90
46319;DHT22;32042;50.916;2.926;2023-07-13T16:27:47;22.30;99.90
46319;DHT22;32042;50.916;2.926;2023-07-13T16:30:24;22.30;99.90